createdAt,value
2023-05-10T00:00:58.391Z,65.00
2023-05-10T00:01:58.436Z,65.27
2023-05-10T00:02:58.399Z,65.29
2023-05-10T00:03:58.432Z,65.33
2023-05-10T00:04:58.353Z,65.55
2023-05-10T00:05:58.352Z,65.66
2023-05-10T00:06:58.350Z,65.51
2023-05-10T00:07:58.383Z,65.54
2023-05-10T00:08:58.449Z,65.69
2023-05-10T00:09:58.494Z,65.69
2023-05-10T00:10:58.553Z,65.01
2023-05-10T00:11:58.607Z,65.21
2023-05-10T00:12:58.689Z,65.27
2023-05-10T00:13:58.690Z,65.69
2023-05-10T00:14:58.721Z,65.80
2023-05-10T00:15:58.757Z,65.63
2023-05-10T00:16:58.854Z,65.58
2023-05-10T00:17:58.895Z,65.69
2023-05-10T00:18:58.875Z,65.79
2023-05-10T00:19:58.912Z,65.80
2023-05-10T00:20:58.957Z,66.56
2023-05-10T00:21:58.965Z,67.12
2023-05-10T00:22:58.983Z,67.33
2023-05-10T00:23:59.042Z,67.41
2023-05-10T00:24:59.075Z,67.87
2023-05-10T00:25:59.123Z,67.47
2023-05-10T00:26:59.161Z,67.50
2023-05-10T00:27:59.186Z,67.32
2023-05-10T00:28:59.204Z,67.29
2023-05-10T00:29:59.228Z,67.42
2023-05-10T00:30:59.298Z,67.12
2023-05-10T00:31:59.351Z,66.87
2023-05-10T00:32:59.390Z,67.66
2023-05-10T00:33:59.424Z,68.37
2023-05-10T00:34:59.438Z,68.50
2023-05-10T00:35:59.475Z,69.03
2023-05-10T00:36:59.544Z,69.29
2023-05-10T00:37:59.576Z,68.77
2023-05-10T00:38:59.658Z,68.40
2023-05-10T00:39:59.696Z,68.78
2023-05-10T00:40:59.676Z,68.78
2023-05-10T00:41:59.674Z,69.29
2023-05-10T00:42:59.692Z,69.76
2023-05-10T00:43:59.698Z,69.21
2023-05-10T00:44:59.751Z,69.02
2023-05-10T00:45:59.770Z,69.00
2023-05-10T00:46:59.807Z,69.22
2023-05-10T00:48:00.308Z,69.24
2023-05-10T00:48:59.851Z,68.76
2023-05-10T00:49:59.865Z,69.13
2023-05-10T00:50:59.887Z,69.01
2023-05-10T00:51:59.934Z,69.26
2023-05-10T00:53:00.017Z,69.29
2023-05-10T00:54:00.019Z,70.51
2023-05-10T00:55:00.050Z,70.22
2023-05-10T00:56:00.078Z,70.16
2023-05-10T00:57:00.082Z,70.49
2023-05-10T00:58:00.163Z,69.88
2023-05-10T00:59:00.194Z,70.36
2023-05-10T01:00:00.254Z,70.08
2023-05-10T01:01:00.291Z,70.13
2023-05-10T01:02:00.288Z,70.02
2023-05-10T01:03:00.425Z,69.46
2023-05-10T01:04:00.368Z,69.56
2023-05-10T01:05:00.431Z,69.93
2023-05-10T01:06:00.436Z,70.48
2023-05-10T01:07:00.473Z,71.09
2023-05-10T01:08:00.526Z,71.31
2023-05-10T01:09:00.563Z,71.22
2023-05-10T01:10:00.585Z,71.25
2023-05-10T01:11:00.620Z,71.68
2023-05-10T01:12:00.681Z,71.27
2023-05-10T01:13:00.698Z,71.07
2023-05-10T01:14:00.696Z,71.87
2023-05-10T01:15:00.742Z,71.99
2023-05-10T01:16:00.840Z,71.98
2023-05-10T01:17:00.845Z,71.70
2023-05-10T01:18:00.874Z,71.39
2023-05-10T01:19:00.916Z,71.05
2023-05-10T01:20:00.916Z,70.84
2023-05-10T01:21:00.909Z,70.85
2023-05-10T01:22:00.911Z,70.69
2023-05-10T01:23:00.910Z,71.09
2023-05-10T01:24:00.916Z,71.04
2023-05-10T01:25:00.909Z,71.13
2023-05-10T01:26:00.916Z,72.07
2023-05-10T01:27:00.898Z,72.09
2023-05-10T01:28:00.887Z,72.88
2023-05-10T01:29:00.886Z,72.09
2023-05-10T01:30:21.776Z,72.25
2023-05-10T01:31:00.884Z,72.18
2023-05-10T01:32:00.815Z,72.49
2023-05-10T01:33:00.810Z,72.74
2023-05-10T01:34:00.754Z,72.42
2023-05-10T01:35:00.735Z,72.66
2023-05-10T01:36:00.687Z,72.75
2023-05-10T01:37:00.659Z,72.99
2023-05-10T01:38:00.629Z,73.01
2023-05-10T01:39:00.616Z,73.08
2023-05-10T01:40:00.630Z,73.48
2023-05-10T01:41:00.608Z,73.43
2023-05-10T01:42:00.611Z,73.80
2023-05-10T01:43:00.616Z,74.08
2023-05-10T01:44:00.629Z,74.25
2023-05-10T01:45:00.648Z,74.63
2023-05-10T01:46:00.621Z,74.90
2023-05-10T01:47:00.755Z,74.96
2023-05-10T01:48:00.647Z,74.93
2023-05-10T01:49:00.557Z,74.81
2023-05-10T01:50:00.581Z,75.06
2023-05-10T01:51:00.554Z,75.07
2023-05-10T01:52:00.524Z,75.48
2023-05-10T01:53:00.567Z,75.69
2023-05-10T01:54:00.566Z,75.91
2023-05-10T01:55:00.565Z,76.18
2023-05-10T01:56:00.588Z,76.01
2023-05-10T01:57:00.567Z,76.43
2023-05-10T01:58:00.593Z,76.50
2023-05-10T01:59:00.585Z,76.85
2023-05-10T02:00:00.611Z,77.11
2023-05-10T02:01:00.677Z,77.33
2023-05-10T02:02:00.561Z,77.20
2023-05-10T02:03:00.607Z,77.27
2023-05-10T02:04:00.656Z,76.95
2023-05-10T02:05:00.525Z,76.78
2023-05-10T02:06:00.548Z,76.82
2023-05-10T02:07:00.636Z,76.66
2023-05-10T02:08:00.638Z,76.54
2023-05-10T02:09:00.682Z,76.45
2023-05-10T02:10:00.716Z,76.36
2023-05-10T02:11:00.762Z,76.36
2023-05-10T02:12:00.818Z,76.28
2023-05-10T02:13:00.941Z,76.27
2023-05-10T02:14:00.953Z,76.43
2023-05-10T02:15:01.017Z,76.43
2023-05-10T02:16:01.028Z,76.45
2023-05-10T02:17:01.096Z,77.05
2023-05-10T02:18:01.275Z,77.55
2023-05-10T02:19:01.246Z,77.64
2023-05-10T02:20:01.281Z,77.39
2023-05-10T02:21:01.341Z,77.53
2023-05-10T02:22:01.416Z,77.89
2023-05-10T02:23:01.463Z,78.30
2023-05-10T02:24:01.518Z,78.40
2023-05-10T02:25:01.544Z,78.67
2023-05-10T02:26:01.582Z,78.94
2023-05-10T02:27:01.581Z,79.10
2023-05-10T02:28:01.604Z,79.17
2023-05-10T02:29:01.724Z,79.24
2023-05-10T02:30:01.785Z,79.23
2023-05-10T02:31:01.842Z,79.43
2023-05-10T02:32:01.995Z,79.51
2023-05-10T02:33:02.023Z,79.20
2023-05-10T02:34:02.051Z,79.24
2023-05-10T02:35:02.099Z,79.25
2023-05-10T02:36:02.178Z,79.25
2023-05-10T02:37:02.236Z,79.47
2023-05-10T02:38:02.291Z,79.52
2023-05-10T02:39:02.393Z,79.35
2023-05-10T02:40:02.422Z,79.36
2023-05-10T02:41:02.436Z,79.33
2023-05-10T02:42:02.493Z,79.38
2023-05-10T02:43:02.584Z,79.31
2023-05-10T02:44:02.592Z,79.63
2023-05-10T02:45:02.663Z,80.01
2023-05-10T02:46:02.771Z,80.10
2023-05-10T02:47:02.781Z,80.21
2023-05-10T02:48:02.852Z,80.16
2023-05-10T02:49:02.880Z,80.17
2023-05-10T02:50:02.912Z,80.17
2023-05-10T02:51:02.984Z,80.22
2023-05-10T02:52:03.068Z,80.21
2023-05-10T02:53:03.172Z,80.22
2023-05-10T02:54:03.228Z,80.45
2023-05-10T02:55:03.337Z,80.30
2023-05-10T02:56:03.348Z,80.19
2023-05-10T02:57:03.381Z,80.22
2023-05-10T02:58:03.435Z,79.99
2023-05-10T02:59:03.431Z,79.85
2023-05-10T03:00:03.476Z,79.66
2023-05-10T03:01:03.557Z,79.64
2023-05-10T03:02:03.580Z,79.25
2023-05-10T03:03:03.649Z,79.09
2023-05-10T03:04:03.602Z,78.92
2023-05-10T03:05:03.741Z,78.83
2023-05-10T03:06:03.640Z,78.93
2023-05-10T03:07:03.679Z,78.79
2023-05-10T03:08:03.695Z,78.81
2023-05-10T03:09:03.714Z,78.85
2023-05-10T03:10:03.754Z,78.83
2023-05-10T03:11:03.790Z,78.76
2023-05-10T03:12:03.830Z,78.81
2023-05-10T03:13:03.895Z,78.64
2023-05-10T03:14:03.942Z,78.49
2023-05-10T03:15:04.030Z,78.26
2023-05-10T03:16:04.065Z,78.22
2023-05-10T03:17:04.076Z,78.05
2023-05-10T03:18:04.167Z,78.03
2023-05-10T03:19:04.178Z,78.10
2023-05-10T03:20:04.194Z,78.12
2023-05-10T03:21:04.237Z,78.37
2023-05-10T03:22:04.276Z,78.56
2023-05-10T03:23:04.338Z,78.55
2023-05-10T03:24:04.415Z,78.39
2023-05-10T03:25:04.428Z,78.49
2023-05-10T03:26:04.471Z,78.38
2023-05-10T03:27:04.556Z,78.64
2023-05-10T03:28:04.535Z,78.68
2023-05-10T03:29:04.597Z,78.78
2023-05-10T03:30:04.560Z,78.74
2023-05-10T03:31:04.623Z,78.76
2023-05-10T03:32:04.574Z,78.67
2023-05-10T03:33:04.654Z,78.83
2023-05-10T03:34:04.735Z,78.88
2023-05-10T03:35:04.698Z,78.89
2023-05-10T03:36:04.747Z,79.04
2023-05-10T03:37:04.800Z,79.15
2023-05-10T03:38:04.834Z,79.14
2023-05-10T03:39:04.942Z,78.96
2023-05-10T03:40:05.006Z,78.82
2023-05-10T03:41:05.006Z,78.99
2023-05-10T03:42:05.040Z,79.43
2023-05-10T03:43:05.076Z,79.31
2023-05-10T03:44:05.121Z,79.18
2023-05-10T03:45:05.129Z,79.05
2023-05-10T03:46:05.185Z,79.23
2023-05-10T03:47:05.258Z,79.03
2023-05-10T03:48:05.310Z,79.01
2023-05-10T03:49:05.340Z,78.61
2023-05-10T03:50:05.290Z,78.41
2023-05-10T03:51:05.304Z,78.66
2023-05-10T03:52:05.318Z,78.75
2023-05-10T03:53:05.325Z,78.68
2023-05-10T03:54:05.337Z,78.66
2023-05-10T03:55:05.336Z,78.35
2023-05-10T03:56:05.352Z,78.52
2023-05-10T03:57:05.360Z,78.53
2023-05-10T03:58:05.364Z,78.34
2023-05-10T03:59:05.440Z,78.33
2023-05-10T04:00:05.462Z,78.28
2023-05-10T04:01:05.525Z,78.25
2023-05-10T04:02:05.606Z,78.29
2023-05-10T04:03:05.654Z,77.76
2023-05-10T04:04:05.702Z,77.81
2023-05-10T04:05:05.745Z,77.85
2023-05-10T04:06:05.817Z,77.88
2023-05-10T04:07:05.804Z,77.87
2023-05-10T04:08:05.865Z,78.04
2023-05-10T04:09:05.945Z,78.07
2023-05-10T04:10:05.954Z,77.97
2023-05-10T04:11:05.997Z,77.81
2023-05-10T04:12:06.499Z,77.83
2023-05-10T04:13:06.111Z,77.77
2023-05-10T04:14:06.128Z,77.64
2023-05-10T04:15:06.160Z,77.45
2023-05-10T04:16:06.192Z,77.45
2023-05-10T04:17:06.330Z,77.41
2023-05-10T04:18:08.718Z,77.36
2023-05-10T04:19:06.287Z,77.40
2023-05-10T04:20:06.186Z,77.25
2023-05-10T04:21:06.166Z,77.11
2023-05-10T04:22:06.144Z,76.98
2023-05-10T04:23:06.140Z,76.92
2023-05-10T04:24:06.118Z,76.96
2023-05-10T04:25:06.076Z,77.27
2023-05-10T04:26:06.047Z,77.11
2023-05-10T04:27:06.019Z,76.95
2023-05-10T04:28:05.999Z,77.06
2023-05-10T04:29:06.017Z,76.83
2023-05-10T04:30:05.956Z,76.72
2023-05-10T04:31:06.054Z,76.81
2023-05-10T04:32:05.903Z,76.57
2023-05-10T04:33:05.943Z,76.61
2023-05-10T04:34:05.892Z,76.63
2023-05-10T04:35:05.836Z,76.53
2023-05-10T04:36:05.833Z,76.55
2023-05-10T04:37:05.789Z,76.39
2023-05-10T04:38:05.755Z,76.46
2023-05-10T04:39:05.802Z,76.50
2023-05-10T04:40:05.721Z,76.55
2023-05-10T04:41:05.714Z,76.37
2023-05-10T04:42:05.696Z,76.54
2023-05-10T04:43:05.687Z,76.45
2023-05-10T04:44:05.699Z,76.51
2023-05-10T04:45:05.658Z,76.61
2023-05-10T04:46:05.734Z,76.59
2023-05-10T04:47:05.691Z,76.37
2023-05-10T04:48:05.715Z,76.41
2023-05-10T04:49:05.732Z,76.63
2023-05-10T04:50:05.804Z,76.83
2023-05-10T04:51:05.855Z,76.83
2023-05-10T04:52:05.852Z,76.94
2023-05-10T04:53:05.898Z,77.05
2023-05-10T04:54:06.936Z,76.95
2023-05-10T04:55:05.971Z,76.97
2023-05-10T04:56:06.001Z,77.03
2023-05-10T04:57:06.039Z,77.15
2023-05-10T04:58:06.081Z,77.17
2023-05-10T04:59:06.127Z,77.21
2023-05-10T05:00:06.181Z,77.17
2023-05-10T05:01:06.208Z,76.98
2023-05-10T05:02:06.320Z,76.87
2023-05-10T05:03:06.448Z,76.70
2023-05-10T05:04:06.367Z,76.66
2023-05-10T05:05:06.432Z,76.62
2023-05-10T05:06:06.436Z,76.62
2023-05-10T05:07:06.464Z,76.72
2023-05-10T05:08:06.504Z,76.57
2023-05-10T05:09:06.554Z,76.49
2023-05-10T05:10:06.554Z,76.73
2023-05-10T05:11:06.571Z,76.87
2023-05-10T05:12:06.634Z,76.91
2023-05-10T05:13:06.768Z,76.96
2023-05-10T05:14:06.731Z,76.98
2023-05-10T05:15:09.055Z,77.06
2023-05-10T05:16:06.769Z,77.02
2023-05-10T05:17:06.660Z,76.88
2023-05-10T05:18:06.691Z,76.95
2023-05-10T05:19:06.832Z,77.16
2023-05-10T05:20:06.623Z,77.21
2023-05-10T05:21:06.778Z,77.28
2023-05-10T05:22:06.552Z,77.75
2023-05-10T05:23:06.545Z,77.97
2023-05-10T05:24:06.528Z,78.01
2023-05-10T05:25:06.465Z,77.94
2023-05-10T05:26:06.782Z,77.79
2023-05-10T05:27:06.410Z,77.90
2023-05-10T05:28:06.383Z,77.72
2023-05-10T05:29:06.357Z,77.49
2023-05-10T05:30:06.367Z,77.43
2023-05-10T05:31:06.350Z,77.42
2023-05-10T05:32:06.380Z,77.20
2023-05-10T05:33:06.352Z,76.76
2023-05-10T05:34:06.242Z,76.57
2023-05-10T05:35:06.311Z,76.40
2023-05-10T05:36:06.184Z,76.46
2023-05-10T05:37:06.168Z,76.49
2023-05-10T05:38:06.178Z,76.50
2023-05-10T05:39:06.111Z,76.60
2023-05-10T05:40:06.299Z,76.76
2023-05-10T05:41:06.057Z,76.76
2023-05-10T05:42:06.054Z,76.58
2023-05-10T05:43:06.054Z,76.50
2023-05-10T05:44:06.062Z,76.34
2023-05-10T05:45:06.283Z,76.01
2023-05-10T05:46:06.186Z,75.73
2023-05-10T05:47:06.163Z,75.66
2023-05-10T05:48:06.266Z,75.75
2023-05-10T05:49:06.217Z,75.88
2023-05-10T05:50:06.297Z,76.38
2023-05-10T05:51:07.394Z,76.80
2023-05-10T05:52:07.289Z,77.29
2023-05-10T05:53:06.253Z,77.54
2023-05-10T05:54:06.557Z,78.05
2023-05-10T05:55:06.334Z,78.04
2023-05-10T05:56:06.269Z,78.05
2023-05-10T05:57:06.284Z,77.87
2023-05-10T05:58:06.789Z,77.67
2023-05-10T05:59:06.327Z,77.62
2023-05-10T06:00:06.789Z,77.44
2023-05-10T06:01:06.375Z,77.31
2023-05-10T06:02:09.634Z,77.50
2023-05-10T06:03:06.470Z,77.04
2023-05-10T06:04:09.610Z,76.73
2023-05-10T06:05:06.797Z,76.88
2023-05-10T06:06:06.328Z,76.82
2023-05-10T06:07:06.345Z,76.92
2023-05-10T06:08:06.268Z,76.79
2023-05-10T06:09:13.662Z,76.66
2023-05-10T06:10:06.188Z,76.47
2023-05-10T06:11:06.166Z,76.46
2023-05-10T06:12:06.325Z,76.29
2023-05-10T06:13:06.146Z,76.18
2023-05-10T06:14:06.069Z,76.18
2023-05-10T06:15:06.307Z,76.06
2023-05-10T06:16:06.013Z,76.09
2023-05-10T06:17:06.053Z,76.20
2023-05-10T06:18:06.130Z,76.45
2023-05-10T06:19:05.933Z,76.20
2023-05-10T06:20:06.306Z,76.48
2023-05-10T06:21:05.848Z,76.33
2023-05-10T06:22:05.807Z,75.97
2023-05-10T06:23:05.808Z,75.79
2023-05-10T06:24:05.771Z,75.91
2023-05-10T06:25:05.795Z,75.83
2023-05-10T06:26:05.687Z,75.50
2023-05-10T06:27:05.662Z,75.64
2023-05-10T06:28:05.629Z,75.67
2023-05-10T06:29:05.590Z,75.22
2023-05-10T06:30:12.791Z,75.22
2023-05-10T06:31:08.743Z,74.93
2023-05-10T06:32:05.488Z,75.06
2023-05-10T06:33:05.507Z,74.47
2023-05-10T06:34:05.423Z,74.53
2023-05-10T06:35:05.808Z,74.47
2023-05-10T06:36:05.358Z,74.51
2023-05-10T06:37:05.311Z,74.01
2023-05-10T06:38:05.272Z,73.97
2023-05-10T06:39:05.559Z,74.26
2023-05-10T06:40:06.204Z,74.00
2023-05-10T06:41:05.171Z,73.99
2023-05-10T06:42:05.157Z,73.60
2023-05-10T06:43:05.090Z,73.75
2023-05-10T06:44:05.297Z,73.82
2023-05-10T06:45:05.305Z,73.90
2023-05-10T06:46:04.993Z,73.98
2023-05-10T06:47:04.984Z,73.79
2023-05-10T06:48:04.988Z,73.54
2023-05-10T06:49:05.367Z,73.28
2023-05-10T06:50:05.368Z,73.25
2023-05-10T06:51:04.800Z,72.68
2023-05-10T06:52:04.801Z,72.92
2023-05-10T06:53:04.742Z,73.07
2023-05-10T06:54:04.713Z,73.32
2023-05-10T06:55:04.830Z,72.99
2023-05-10T06:56:07.851Z,73.10
2023-05-10T06:57:08.811Z,72.79
2023-05-10T06:58:04.574Z,72.45
2023-05-10T06:59:07.909Z,72.52
2023-05-10T07:00:04.826Z,72.39
2023-05-10T07:01:04.523Z,72.55
2023-05-10T07:02:04.530Z,72.24
2023-05-10T07:03:04.505Z,72.27
2023-05-10T07:04:04.817Z,72.53
2023-05-10T07:05:04.812Z,72.66
2023-05-10T07:06:04.343Z,72.41
2023-05-10T07:07:04.316Z,72.52
2023-05-10T07:08:04.255Z,72.46
2023-05-10T07:09:04.337Z,72.33
2023-05-10T07:10:04.328Z,72.33
2023-05-10T07:11:04.290Z,72.13
2023-05-10T07:12:04.190Z,72.13
2023-05-10T07:13:04.147Z,71.86
2023-05-10T07:14:04.064Z,71.83
2023-05-10T07:15:04.032Z,72.01
2023-05-10T07:16:04.019Z,72.08
2023-05-10T07:17:04.366Z,71.63
2023-05-10T07:18:04.026Z,71.84
2023-05-10T07:19:03.884Z,72.19
2023-05-10T07:20:03.855Z,71.88
2023-05-10T07:21:03.813Z,72.27
2023-05-10T07:22:03.760Z,71.23
2023-05-10T07:23:03.743Z,71.27
2023-05-10T07:24:03.696Z,71.12
2023-05-10T07:25:03.690Z,71.01
2023-05-10T07:26:03.645Z,70.73
2023-05-10T07:27:03.842Z,71.18
2023-05-10T07:28:03.570Z,70.94
2023-05-10T07:29:03.814Z,70.53
2023-05-10T07:30:03.598Z,70.54
2023-05-10T07:31:03.549Z,70.46
2023-05-10T07:32:03.833Z,69.72
2023-05-10T07:33:03.446Z,69.88
2023-05-10T07:34:03.377Z,69.11
2023-05-10T07:35:04.378Z,68.33
2023-05-10T07:36:03.290Z,68.26
2023-05-10T07:37:03.317Z,68.22
2023-05-10T07:38:03.253Z,68.86
2023-05-10T07:39:03.173Z,69.61
2023-05-10T07:40:03.312Z,70.67
2023-05-10T07:41:03.210Z,70.81
2023-05-10T07:42:03.089Z,70.80
2023-05-10T07:43:03.168Z,70.85
2023-05-10T07:44:06.439Z,71.52
2023-05-10T07:45:03.360Z,71.38
2023-05-10T07:46:07.395Z,71.26
2023-05-10T07:47:03.098Z,71.43
2023-05-10T07:48:03.059Z,71.27
2023-05-10T07:49:03.040Z,71.66
2023-05-10T07:50:03.369Z,71.91
2023-05-10T07:51:03.101Z,72.63
2023-05-10T07:52:03.280Z,71.83
2023-05-10T07:53:03.248Z,71.52
2023-05-10T07:54:06.251Z,71.39
2023-05-10T07:55:03.336Z,71.66
2023-05-10T07:56:02.974Z,71.56
2023-05-10T07:57:03.001Z,71.31
2023-05-10T07:58:02.936Z,71.26
2023-05-10T07:59:02.929Z,71.21
2023-05-10T08:00:03.324Z,71.02
2023-05-10T08:01:02.791Z,70.87
2023-05-10T08:02:02.781Z,71.46
2023-05-10T08:03:02.862Z,71.11
2023-05-10T08:04:02.934Z,71.39
2023-05-10T08:05:02.826Z,71.64
2023-05-10T08:06:02.610Z,71.68
2023-05-10T08:07:02.831Z,71.80
2023-05-10T08:08:02.514Z,71.52
2023-05-10T08:09:02.486Z,71.30
2023-05-10T08:10:02.830Z,71.29
2023-05-10T08:11:02.405Z,71.05
2023-05-10T08:12:02.366Z,70.10
2023-05-10T08:13:02.328Z,70.08
2023-05-10T08:14:02.321Z,69.52
2023-05-10T08:15:02.284Z,70.32
2023-05-10T08:16:02.241Z,69.61
2023-05-10T08:17:02.212Z,70.09
2023-05-10T08:18:02.154Z,69.48
2023-05-10T08:19:02.131Z,69.26
2023-05-10T08:20:02.407Z,69.44
2023-05-10T08:21:01.990Z,68.75
2023-05-10T08:22:01.968Z,68.93
2023-05-10T08:23:01.904Z,68.89
2023-05-10T08:24:01.855Z,69.13
2023-05-10T08:25:02.342Z,69.15
2023-05-10T08:26:03.437Z,68.77
2023-05-10T08:27:01.974Z,68.64
2023-05-10T08:28:02.003Z,68.27
2023-05-10T08:29:01.973Z,68.71
2023-05-10T08:30:02.332Z,69.21
2023-05-10T08:31:02.057Z,68.07
2023-05-10T08:32:01.951Z,67.97
2023-05-10T08:33:01.985Z,68.27
2023-05-10T08:34:01.893Z,67.23
2023-05-10T08:35:02.340Z,67.42
2023-05-10T08:36:01.856Z,67.34
2023-05-10T08:37:01.812Z,67.08
2023-05-10T08:38:01.807Z,66.98
2023-05-10T08:39:01.792Z,66.82
2023-05-10T08:40:02.878Z,66.75
2023-05-10T08:41:01.650Z,67.14
2023-05-10T08:42:01.833Z,68.02
2023-05-10T08:43:01.588Z,66.81
2023-05-10T08:44:01.563Z,66.28
2023-05-10T08:45:05.425Z,67.59
2023-05-10T08:46:01.505Z,68.91
2023-05-10T08:47:01.621Z,68.97
2023-05-10T08:48:01.484Z,69.41
2023-05-10T08:49:01.374Z,69.32
2023-05-10T08:50:01.875Z,69.07
2023-05-10T08:51:01.350Z,69.19
2023-05-10T08:52:01.301Z,69.31
2023-05-10T08:53:01.289Z,69.85
2023-05-10T08:54:01.258Z,69.58
2023-05-10T08:55:01.339Z,69.98
2023-05-10T08:56:01.254Z,69.60
2023-05-10T08:57:01.227Z,69.54
2023-05-10T08:58:01.240Z,70.00
2023-05-10T08:59:01.347Z,70.49
2023-05-10T09:00:01.857Z,70.80
2023-05-10T09:01:01.419Z,71.39
2023-05-10T09:02:01.348Z,71.25
2023-05-10T09:03:01.461Z,70.74
2023-05-10T09:04:01.462Z,70.74
2023-05-10T09:05:01.610Z,70.57
2023-05-10T09:06:01.446Z,70.24
2023-05-10T09:07:04.677Z,70.61
2023-05-10T09:08:01.482Z,70.10
2023-05-10T09:09:01.441Z,70.22
2023-05-10T09:10:01.448Z,70.76
2023-05-10T09:11:01.413Z,70.48
2023-05-10T09:12:01.407Z,70.51
2023-05-10T09:13:01.404Z,70.81
2023-05-10T09:14:01.389Z,71.89
2023-05-10T09:15:01.885Z,72.79
2023-05-10T09:16:09.855Z,73.07
2023-05-10T09:17:01.458Z,72.98
2023-05-10T09:18:01.400Z,72.91
2023-05-10T09:19:01.425Z,73.12
2023-05-10T09:20:02.688Z,72.88
2023-05-10T09:21:01.887Z,72.63
2023-05-10T09:22:01.654Z,72.81
2023-05-10T09:23:01.648Z,73.29
2023-05-10T09:24:01.716Z,74.03
2023-05-10T09:25:01.763Z,74.35
2023-05-10T09:26:01.848Z,74.16
2023-05-10T09:27:01.828Z,73.57
2023-05-10T09:28:01.900Z,73.34
2023-05-10T09:29:01.955Z,73.72
2023-05-10T09:30:02.353Z,73.51
2023-05-10T09:31:02.070Z,73.35
2023-05-10T09:32:02.073Z,73.16
2023-05-10T09:33:02.129Z,73.61
2023-05-10T09:34:02.135Z,72.78
2023-05-10T09:35:02.391Z,73.14
2023-05-10T09:36:02.356Z,73.22
2023-05-10T09:37:02.281Z,73.75
2023-05-10T09:38:02.325Z,73.68
2023-05-10T09:39:02.858Z,73.52
2023-05-10T09:40:02.442Z,73.49
2023-05-10T09:41:02.428Z,73.63
2023-05-10T09:42:02.451Z,73.75
2023-05-10T09:43:02.485Z,73.06
2023-05-10T09:44:02.864Z,72.60
2023-05-10T09:45:02.549Z,72.67
2023-05-10T09:46:02.645Z,73.05
2023-05-10T09:47:02.629Z,73.78
2023-05-10T09:48:02.718Z,73.80
2023-05-10T09:49:02.726Z,73.84
2023-05-10T09:50:02.860Z,73.61
2023-05-10T09:51:02.774Z,72.67
2023-05-10T09:52:02.782Z,72.15
2023-05-10T09:53:02.825Z,71.88
2023-05-10T09:54:03.376Z,72.28
2023-05-10T09:55:02.957Z,72.51
2023-05-10T09:56:02.976Z,73.36
2023-05-10T09:57:03.357Z,72.24
2023-05-10T09:58:04.009Z,71.33
2023-05-10T09:59:06.204Z,71.16
2023-05-10T10:00:03.006Z,71.51
2023-05-10T10:01:03.408Z,72.42
2023-05-10T10:02:03.080Z,71.96
2023-05-10T10:03:03.060Z,71.71
2023-05-10T10:04:03.004Z,71.33
2023-05-10T10:05:03.031Z,72.06
2023-05-10T10:06:03.367Z,71.95
2023-05-10T10:07:03.053Z,72.39
2023-05-10T10:08:03.393Z,73.51
2023-05-10T10:09:03.047Z,72.04
2023-05-10T10:10:03.361Z,72.20
2023-05-10T10:11:03.360Z,72.07
2023-05-10T10:12:03.084Z,71.11
2023-05-10T10:13:03.118Z,72.57
2023-05-10T10:14:03.132Z,73.24
2023-05-10T10:15:03.162Z,73.09
2023-05-10T10:16:03.408Z,72.62
2023-05-10T10:18:02.328Z,73.22
2023-05-10T10:19:03.330Z,74.20
2023-05-10T10:20:03.311Z,74.63
2023-05-10T10:21:03.378Z,75.43
2023-05-10T10:22:03.316Z,75.56
2023-05-10T10:23:03.358Z,74.83
2023-05-10T10:24:03.350Z,74.05
2023-05-10T10:25:03.357Z,73.63
2023-05-10T10:26:03.868Z,73.93
2023-05-10T10:27:03.385Z,74.01
2023-05-10T10:28:03.413Z,74.27
2023-05-10T10:29:03.413Z,74.41
2023-05-10T10:30:03.391Z,73.13
2023-05-10T10:31:03.899Z,73.42
2023-05-10T10:32:03.397Z,74.42
2023-05-10T10:33:10.224Z,74.19
2023-05-10T10:34:03.414Z,73.56
2023-05-10T10:35:03.414Z,73.53
2023-05-10T10:36:03.865Z,73.21
2023-05-10T10:37:03.411Z,73.26
2023-05-10T10:38:03.410Z,73.36
2023-05-10T10:39:03.448Z,74.04
2023-05-10T10:40:03.423Z,74.20
2023-05-10T10:41:03.884Z,74.07
2023-05-10T10:42:03.430Z,74.35
2023-05-10T10:43:03.457Z,74.08
2023-05-10T10:44:03.477Z,73.73
2023-05-10T10:45:03.490Z,74.70
2023-05-10T10:46:03.538Z,75.10
2023-05-10T10:47:03.613Z,75.54
2023-05-10T10:48:03.613Z,75.91
2023-05-10T10:49:03.591Z,75.44
2023-05-10T10:50:03.657Z,76.08
2023-05-10T10:51:05.321Z,76.96
2023-05-10T10:52:03.653Z,76.29
2023-05-10T10:53:03.665Z,76.26
2023-05-10T10:54:03.734Z,76.93
2023-05-10T10:55:03.786Z,76.25
2023-05-10T10:56:03.691Z,76.04
2023-05-10T10:57:03.700Z,75.65
2023-05-10T10:58:03.882Z,75.18
2023-05-10T10:59:03.736Z,74.62
2023-05-10T11:00:03.805Z,74.76
2023-05-10T11:01:03.792Z,74.95
2023-05-10T11:02:04.673Z,74.80
2023-05-10T11:03:04.037Z,75.59
2023-05-10T11:04:03.950Z,75.63
2023-05-10T11:05:04.377Z,76.07
2023-05-10T11:06:03.898Z,76.28
2023-05-10T11:07:03.910Z,76.45
2023-05-10T11:08:03.913Z,75.75
2023-05-10T11:09:03.935Z,75.91
2023-05-10T11:10:04.377Z,76.05
2023-05-10T11:11:03.976Z,75.54
2023-05-10T11:12:03.960Z,75.57
2023-05-10T11:13:03.955Z,76.02
2023-05-10T11:14:03.957Z,75.37
2023-05-10T11:15:03.957Z,74.11
2023-05-10T11:16:04.398Z,73.55
2023-05-10T11:17:04.024Z,73.79
2023-05-10T11:18:04.029Z,73.26
2023-05-10T11:19:07.310Z,72.30
2023-05-10T11:20:03.976Z,72.06
2023-05-10T11:21:04.006Z,73.03
2023-05-10T11:22:04.772Z,73.49
2023-05-10T11:23:04.047Z,71.98
2023-05-10T11:24:04.072Z,72.36
2023-05-10T11:25:04.113Z,73.22
2023-05-10T11:26:05.112Z,72.51
2023-05-10T11:27:04.153Z,72.77
2023-05-10T11:28:04.365Z,71.72
2023-05-10T11:29:04.153Z,71.50
2023-05-10T11:30:05.040Z,72.41
2023-05-10T11:31:04.245Z,72.41
2023-05-10T11:32:04.159Z,71.59
2023-05-10T11:33:04.203Z,72.08
2023-05-10T11:34:04.192Z,71.88
2023-05-10T11:35:04.197Z,71.68
2023-05-10T11:36:04.215Z,72.03
2023-05-10T11:37:04.244Z,72.65
2023-05-10T11:38:04.302Z,72.89
2023-05-10T11:39:04.331Z,72.75
2023-05-10T11:40:04.405Z,72.20
2023-05-10T11:41:04.549Z,72.39
2023-05-10T11:42:04.534Z,73.06
2023-05-10T11:43:04.596Z,72.47
2023-05-10T11:44:04.630Z,72.93
2023-05-10T11:45:04.700Z,72.56
2023-05-10T11:46:04.831Z,72.04
2023-05-10T11:47:04.788Z,72.12
2023-05-10T11:48:04.882Z,72.61
2023-05-10T11:49:04.953Z,71.82
2023-05-10T11:50:04.922Z,71.24
2023-05-10T11:51:04.997Z,70.72
2023-05-10T11:52:05.002Z,70.20
2023-05-10T11:53:05.049Z,70.67
2023-05-10T11:54:05.100Z,70.59
2023-05-10T11:55:05.202Z,71.94
2023-05-10T11:56:06.404Z,71.33
2023-05-10T11:57:05.311Z,72.26
2023-05-10T11:58:05.398Z,72.35
2023-05-10T11:59:05.910Z,73.02
2023-05-10T12:00:05.588Z,72.45
2023-05-10T12:01:05.910Z,72.47
2023-05-10T12:02:05.724Z,72.89
2023-05-10T12:03:05.853Z,73.37
2023-05-10T12:04:06.209Z,73.38
2023-05-10T12:05:06.099Z,72.44
2023-05-10T12:06:06.048Z,72.92
2023-05-10T12:07:06.115Z,73.35
2023-05-10T12:08:06.205Z,72.74
2023-05-10T12:09:06.289Z,72.17
2023-05-10T12:10:06.408Z,72.66
2023-05-10T12:11:06.545Z,73.38
2023-05-10T12:12:06.575Z,74.23
2023-05-10T12:13:06.679Z,74.94
2023-05-10T12:14:06.770Z,74.06
2023-05-10T12:15:06.932Z,73.97
2023-05-10T12:16:07.465Z,74.57
2023-05-10T12:17:06.976Z,74.30
2023-05-10T12:18:07.077Z,74.75
2023-05-10T12:19:07.154Z,75.39
2023-05-10T12:20:07.234Z,75.59
2023-05-10T12:21:07.341Z,76.28
2023-05-10T12:22:07.916Z,75.24
2023-05-10T12:23:07.859Z,75.52
2023-05-10T12:24:07.589Z,74.76
2023-05-10T12:25:07.651Z,74.78
2023-05-10T12:26:07.949Z,75.59
2023-05-10T12:27:07.793Z,75.95
2023-05-10T12:28:07.831Z,75.53
2023-05-10T12:29:07.855Z,75.15
2023-05-10T12:30:07.884Z,75.45
2023-05-10T12:31:08.046Z,76.08
2023-05-10T12:32:08.201Z,76.17
2023-05-10T12:33:08.137Z,74.91
2023-05-10T12:34:08.138Z,75.37
2023-05-10T12:35:08.187Z,75.38
2023-05-10T12:36:08.266Z,75.07
2023-05-10T12:37:08.307Z,75.25
2023-05-10T12:38:08.353Z,75.61
2023-05-10T12:39:08.906Z,75.80
2023-05-10T12:40:08.523Z,74.92
2023-05-10T12:41:08.624Z,75.27
2023-05-10T12:42:08.640Z,76.02
2023-05-10T12:43:08.897Z,76.11
2023-05-10T12:44:08.754Z,76.00
2023-05-10T12:45:08.785Z,75.74
2023-05-10T12:46:08.908Z,76.28
2023-05-10T12:47:08.890Z,76.40
2023-05-10T12:48:08.959Z,76.04
2023-05-10T12:49:09.897Z,76.41
2023-05-10T12:50:09.047Z,76.55
2023-05-10T12:51:09.090Z,76.60
2023-05-10T12:52:09.095Z,76.47
2023-05-10T12:53:09.158Z,76.65
2023-05-10T12:54:09.179Z,77.00